Time;durP1;ratioP1;P1;durP2;ratioP2;P2;SDS_P1;SDS_P2;PMS_P1;PMS_P2;Temp;Humidity;BMP_temperature;BMP_pressure;BME280_temperature;BME280_humidity;BME280_pressure;Samples;Min_cycle;Max_cycle;Signal;HPM_P1;HPM_P2
2021/06/12 00:02:07;;;;;;;1.63;1.47;;;;;;;24.73;46.45;101666.56;5012728;28;20225;-79
2021/06/12 00:04:33;;;;;;;2.77;1.70;;;;;;;24.75;46.40;101670.00;5012607;28;20186;-79
2021/06/12 00:06:59;;;;;;;2.23;1.70;;;;;;;24.72;46.82;101677.09;5005754;28;20252;-79
2021/06/12 00:09:25;;;;;;;4.60;1.90;;;;;;;24.70;46.47;101674.50;5006256;28;20210;-79
2021/06/12 00:11:51;;;;;;;3.90;1.87;;;;;;;24.70;46.48;101664.03;5012196;28;20234;-79
2021/06/12 00:14:17;;;;;;;1.93;1.57;;;;;;;24.76;46.40;101669.09;5007154;28;20179;-78
2021/06/12 00:16:42;;;;;;;2.90;1.90;;;;;;;24.72;46.44;101662.22;4993157;28;20222;-79
2021/06/12 00:19:07;;;;;;;2.03;1.83;;;;;;;24.73;46.53;101663.09;4992721;28;20214;-80
2021/06/12 00:21:36;;;;;;;2.97;1.87;;;;;;;24.72;46.35;101658.75;4993155;28;20187;-78
2021/06/12 00:24:01;;;;;;;1.93;1.77;;;;;;;24.74;46.38;101651.69;4993026;28;20258;-79
2021/06/12 00:26:27;;;;;;;2.90;1.90;;;;;;;24.75;46.47;101638.56;4993717;28;20589;-77
2021/06/12 00:28:52;;;;;;;2.73;1.90;;;;;;;24.76;46.28;101637.66;5009845;28;20198;-76
2021/06/12 00:31:17;;;;;;;1.90;1.70;;;;;;;24.76;46.60;101642.03;5013059;28;20194;-78
2021/06/12 00:33:43;;;;;;;2.07;1.80;;;;;;;24.78;45.79;101648.09;5024891;28;20324;-80
2021/06/12 00:36:09;;;;;;;1.93;1.70;;;;;;;24.80;46.14;101651.53;5036408;28;20192;-79
2021/06/12 00:38:35;;;;;;;3.47;2.00;;;;;;;24.78;46.28;101643.75;5013192;28;20213;-76
2021/06/12 00:41:00;;;;;;;1.87;1.77;;;;;;;24.75;46.53;101641.19;4994761;28;20200;-77
2021/06/12 00:43:25;;;;;;;2.43;1.90;;;;;;;24.79;46.19;101649.81;4993405;28;20176;-76
2021/06/12 00:45:50;;;;;;;2.20;2.00;;;;;;;24.77;45.87;101642.00;5027235;28;20179;-78
2021/06/12 00:48:16;;;;;;;2.00;1.80;;;;;;;24.76;46.17;101636.78;5011423;28;20218;-78
2021/06/12 00:50:41;;;;;;;2.07;1.53;;;;;;;24.75;46.22;101638.56;5015752;28;20195;-78
2021/06/12 00:53:06;;;;;;;2.73;1.93;;;;;;;24.75;46.40;101637.69;5009521;28;20214;-78
2021/06/12 00:55:33;;;;;;;2.20;2.00;;;;;;;24.75;46.31;101632.44;5011738;28;20711;-77
2021/06/12 00:57:58;;;;;;;2.30;1.97;;;;;;;24.76;46.03;101631.53;5011498;28;20175;-75
2021/06/12 01:00:23;;;;;;;3.17;1.90;;;;;;;24.75;46.02;101638.56;5008500;28;20716;-78
2021/06/12 01:02:49;;;;;;;2.00;1.90;;;;;;;24.75;46.32;101630.69;5008921;28;20179;-78
2021/06/12 01:05:18;;;;;;;2.57;1.70;;;;;;;24.74;46.36;101636.84;5011505;28;20207;-78
2021/06/12 01:07:43;;;;;;;1.53;1.43;;;;;;;24.74;46.31;101639.47;5011165;28;20203;-77
2021/06/12 01:10:11;;;;;;;2.20;1.93;;;;;;;24.73;46.22;101632.47;4997617;28;20858;-78
2021/06/12 01:13:05;;;;;;;2.00;1.80;;;;;;;24.75;46.43;101642.94;4991378;28;20262;-80
2021/06/12 01:15:49;;;;;;;2.10;1.90;;;;;;;24.73;46.12;101648.22;4991750;28;20191;-79
2021/06/12 01:18:16;;;;;;;2.00;1.90;;;;;;;24.72;46.20;101635.19;5007108;28;20259;-79
2021/06/12 01:21:09;;;;;;;1.83;1.73;;;;;;;24.71;46.51;101636.03;4990254;28;20207;-79
2021/06/12 01:23:59;;;;;;;1.90;1.80;;;;;;;24.74;46.43;101626.38;4992156;28;20195;-78
2021/06/12 01:26:49;;;;;;;2.13;1.93;;;;;;;24.75;46.26;101621.97;5009666;28;20624;-78
2021/06/12 01:29:36;;;;;;;3.53;2.20;;;;;;;24.73;46.59;101615.91;4992899;28;20700;-78
2021/06/12 01:32:03;;;;;;;2.87;1.90;;;;;;;24.72;46.37;101604.56;4992017;28;20183;-79
2021/06/12 01:34:30;;;;;;;2.13;1.80;;;;;;;24.71;46.58;101599.34;5007167;28;20193;-78
2021/06/12 01:36:57;;;;;;;2.03;1.93;;;;;;;24.71;47.00;101594.13;5010482;28;20175;-78
2021/06/12 01:39:26;;;;;;;2.00;1.80;;;;;;;24.67;46.66;101595.97;5009252;28;20195;-80
2021/06/12 01:41:56;;;;;;;4.53;2.00;;;;;;;24.71;46.60;101599.34;5011456;28;20248;-78
2021/06/12 01:44:22;;;;;;;2.80;1.87;;;;;;;24.73;46.61;101592.34;5010740;28;20210;-78
2021/06/12 01:46:48;;;;;;;3.70;1.93;;;;;;;24.68;46.27;101588.97;5026449;28;20265;-77
2021/06/12 01:49:15;;;;;;;4.10;1.97;;;;;;;24.71;46.34;101594.13;5011048;28;20211;-78
2021/06/12 01:51:41;;;;;;;2.53;1.67;;;;;;;24.73;46.14;101587.94;5006311;28;20187;-78
2021/06/12 01:54:08;;;;;;;2.30;1.93;;;;;;;24.71;46.38;101599.34;5011610;28;20167;-79
2021/06/12 01:56:34;;;;;;;3.53;2.03;;;;;;;24.71;46.34;101596.75;4996854;28;20192;-76
2021/06/12 01:59:00;;;;;;;2.40;1.97;;;;;;;24.72;45.90;101593.25;4991714;28;20253;-77
2021/06/12 02:01:26;;;;;;;2.40;2.00;;;;;;;24.69;46.33;101596.81;4992336;28;20176;-78
2021/06/12 02:03:54;;;;;;;3.10;2.03;;;;;;;24.69;46.55;101598.56;5007269;28;20183;-76
2021/06/12 02:06:20;;;;;;;2.40;2.20;;;;;;;24.68;46.29;101595.06;5011249;28;20218;-78
2021/06/12 02:08:46;;;;;;;2.50;2.10;;;;;;;24.69;46.38;101596.81;4998146;28;20202;-76
2021/06/12 02:11:13;;;;;;;2.80;2.13;;;;;;;24.69;46.38;101588.94;4999421;28;20261;-78
2021/06/12 02:13:41;;;;;;;3.00;2.03;;;;;;;24.69;46.26;101580.22;5014065;28;20590;-78
2021/06/12 02:16:06;;;;;;;2.47;1.90;;;;;;;24.68;46.22;101583.75;4996267;28;20184;-78
2021/06/12 02:18:32;;;;;;;2.83;2.10;;;;;;;24.69;46.43;101586.31;4994091;28;20184;-80
2021/06/12 02:20:59;;;;;;;2.47;1.90;;;;;;;24.69;46.30;101574.97;4995068;28;20196;-78
2021/06/12 02:23:26;;;;;;;2.23;2.03;;;;;;;24.67;46.38;101577.63;5006997;28;20229;-78
2021/06/12 02:25:52;;;;;;;2.40;1.87;;;;;;;24.69;46.51;101577.59;4995390;28;20266;-78
2021/06/12 02:28:20;;;;;;;3.57;1.97;;;;;;;24.64;46.71;101567.22;4995409;28;20287;-79
2021/06/12 02:31:01;;;;;;;2.30;2.10;;;;;;;24.64;46.62;101559.34;5011612;28;20269;-79
2021/06/12 02:33:27;;;;;;;2.87;2.20;;;;;;;24.63;46.97;101559.41;5020173;28;20182;-79
2021/06/12 02:35:53;;;;;;;3.63;2.13;;;;;;;24.66;46.45;101568.06;5019503;28;20286;-77
2021/06/12 02:38:19;;;;;;;2.23;1.80;;;;;;;24.64;46.67;101561.13;5005291;28;20313;-81
2021/06/12 02:40:44;;;;;;;2.30;2.10;;;;;;;24.65;46.75;101566.34;5018078;28;20199;-78
2021/06/12 02:43:09;;;;;;;3.00;2.20;;;;;;;24.66;46.43;101572.41;5020583;28;20175;-79
2021/06/12 02:45:38;;;;;;;4.17;2.73;;;;;;;24.64;46.49;101579.47;5040930;28;20171;-81
2021/06/12 02:48:08;;;;;;;3.13;2.33;;;;;;;24.61;46.49;101574.31;5023453;28;20207;-78
2021/06/12 02:50:37;;;;;;;2.53;2.33;;;;;;;24.56;46.40;101568.28;4999357;28;20250;-78
2021/06/12 02:53:07;;;;;;;4.40;2.23;;;;;;;24.59;46.49;101566.47;4999154;28;20184;-77
2021/06/12 02:55:39;;;;;;;3.37;2.40;;;;;;;24.58;46.94;101569.13;4996753;28;20172;-78
2021/06/12 02:58:06;;;;;;;2.40;2.20;;;;;;;24.60;46.56;101564.72;5013466;28;20199;-78
2021/06/12 03:00:34;;;;;;;3.07;2.50;;;;;;;24.58;46.79;101563.91;5008896;28;20226;-80
2021/06/12 03:03:00;;;;;;;3.10;2.80;;;;;;;24.58;46.77;101567.34;4998106;28;20703;-81
2021/06/12 03:05:27;;;;;;;3.47;2.90;;;;;;;24.55;46.83;101567.47;4997518;28;20246;-79
2021/06/12 03:07:56;;;;;;;3.03;2.73;;;;;;;24.57;46.86;101562.16;5013606;28;20230;-79
2021/06/12 03:10:23;;;;;;;2.93;2.60;;;;;;;24.56;46.78;101563.94;5018596;28;20284;-78
2021/06/12 03:12:50;;;;;;;3.00;2.70;;;;;;;24.55;46.75;101563.97;5017766;28;20194;-79
2021/06/12 03:15:17;;;;;;;3.40;2.53;;;;;;;24.54;46.85;101559.63;5018462;28;20179;-79
2021/06/12 03:17:45;;;;;;;3.20;2.90;;;;;;;24.56;46.60;101553.44;5018297;28;20258;-78
2021/06/12 03:20:11;;;;;;;3.20;2.90;;;;;;;24.53;46.76;101548.28;5009237;28;20199;-80
2021/06/12 03:22:37;;;;;;;2.97;2.67;;;;;;;24.53;46.58;101552.66;4999069;28;20222;-80
2021/06/12 03:25:03;;;;;;;4.33;3.20;;;;;;;24.54;46.86;101544.75;4999742;28;20175;-81
2021/06/12 03:27:29;;;;;;;3.50;3.20;;;;;;;24.53;46.79;101550.03;5002049;28;20211;-78
2021/06/12 03:29:55;;;;;;;3.53;3.23;;;;;;;24.49;46.78;101540.56;5017415;28;20210;-80
2021/06/12 03:32:21;;;;;;;4.10;3.33;;;;;;;24.48;46.72;101549.28;5011160;28;20187;-76
2021/06/12 03:34:47;;;;;;;3.93;3.50;;;;;;;24.48;46.84;101542.31;4999481;28;20180;-80
2021/06/12 03:37:16;;;;;;;4.40;3.60;;;;;;;24.48;47.13;101546.66;4994884;28;20225;-79
2021/06/12 03:39:41;;;;;;;3.70;2.87;;;;;;;24.49;46.87;101548.41;4995007;28;20237;-78
2021/06/12 03:42:07;;;;;;;5.37;3.70;;;;;;;24.49;46.87;101541.41;4999389;28;20195;-79
2021/06/12 03:44:32;;;;;;;4.03;3.50;;;;;;;24.48;47.40;101533.56;5013034;28;20194;-77
2021/06/12 03:46:58;;;;;;;3.87;3.47;;;;;;;24.46;47.17;101538.00;5011274;28;20203;-78
2021/06/12 03:49:24;;;;;;;5.27;3.53;;;;;;;24.45;47.16;101536.28;5012564;28;20707;-77
2021/06/12 03:51:50;;;;;;;4.47;4.00;;;;;;;24.43;47.18;101543.31;4997300;28;20552;-78
2021/06/12 03:54:15;;;;;;;4.43;3.70;;;;;;;24.43;47.30;101546.81;4992717;28;20176;-77
2021/06/12 03:56:43;;;;;;;4.97;3.97;;;;;;;24.43;47.27;101541.56;5007424;28;20184;-76
2021/06/12 03:59:09;;;;;;;4.53;3.87;;;;;;;24.43;47.26;101538.94;5007579;28;20179;-77
2021/06/12 04:01:35;;;;;;;5.70;4.37;;;;;;;24.42;47.42;101539.84;5012312;28;20562;-76
2021/06/12 04:04:00;;;;;;;4.47;4.03;;;;;;;24.45;47.32;101538.91;5012643;28;20175;-77
2021/06/12 04:06:27;;;;;;;5.77;4.30;;;;;;;24.43;47.48;101545.94;5008685;28;20183;-78
2021/06/12 04:08:53;;;;;;;5.67;4.37;;;;;;;24.43;47.07;101541.56;5011716;28;20719;-74
2021/06/12 04:11:18;;;;;;;5.33;4.43;;;;;;;24.44;47.42;101539.81;5012172;28;20214;-75
2021/06/12 04:13:44;;;;;;;6.47;5.07;;;;;;;24.46;47.68;101543.25;5012343;28;20534;-76
2021/06/12 04:16:10;;;;;;;6.80;5.13;;;;;;;24.42;47.86;101532.00;5011555;28;20558;-74
2021/06/12 04:18:35;;;;;;;5.03;4.53;;;;;;;24.41;47.81;101543.34;5011905;28;20298;-73
2021/06/12 04:21:02;;;;;;;5.73;5.00;;;;;;;24.40;48.05;101546.88;5004303;28;20203;-76
2021/06/12 04:23:27;;;;;;;5.93;4.93;;;;;;;24.39;47.72;101545.16;5005606;28;20659;-76
2021/06/12 04:25:53;;;;;;;5.93;5.00;;;;;;;24.47;47.51;101543.22;5009411;28;20183;-77
2021/06/12 04:28:18;;;;;;;10.07;5.27;;;;;;;24.49;47.79;101538.78;4991383;28;20574;-77
2021/06/12 04:30:43;;;;;;;7.40;5.00;;;;;;;24.53;47.73;101537.81;4992382;28;20196;-76
2021/06/12 04:33:09;;;;;;;8.53;5.00;;;;;;;24.54;47.87;101529.03;4992219;28;20616;-74
2021/06/12 04:35:34;;;;;;;8.83;4.70;;;;;;;24.49;48.46;101535.31;5007696;28;20187;-73
2021/06/12 04:38:00;;;;;;;8.57;5.77;;;;;;;24.42;48.19;101536.38;5007921;28;20172;-74
2021/06/12 04:40:28;;;;;;;5.27;4.77;;;;;;;24.36;48.48;101534.75;5026465;28;20695;-76
2021/06/12 04:42:53;;;;;;;7.93;5.47;;;;;;;24.33;48.42;101541.84;5011548;28;20175;-75
2021/06/12 04:45:19;;;;;;;5.87;5.10;;;;;;;24.27;48.62;101532.38;5026680;28;20179;-76
2021/06/12 04:47:44;;;;;;;8.27;5.53;;;;;;;24.28;48.61;101538.47;5026508;28;20268;-75
2021/06/12 04:50:13;;;;;;;8.70;6.00;;;;;;;24.26;48.74;101530.66;5011678;28;20274;-75
2021/06/12 04:52:39;;;;;;;9.00;5.47;;;;;;;24.28;48.64;101528.88;5034856;28;20270;-75
2021/06/12 04:55:06;;;;;;;6.70;5.87;;;;;;;24.24;48.99;101529.84;5034458;28;20171;-76
2021/06/12 04:57:31;;;;;;;7.40;6.30;;;;;;;24.25;48.52;101531.56;5029441;28;20687;-75
2021/06/12 04:59:57;;;;;;;6.50;5.53;;;;;;;24.22;48.99;101530.78;5027267;28;20307;-73
2021/06/12 05:02:22;;;;;;;8.37;6.53;;;;;;;24.20;49.05;101536.06;5011053;28;20190;-74
2021/06/12 05:04:47;;;;;;;6.90;6.07;;;;;;;24.21;48.35;101535.16;5011821;28;20179;-74
2021/06/12 05:07:12;;;;;;;7.73;6.00;;;;;;;24.22;49.04;101539.50;5011332;28;20217;-74
2021/06/12 05:09:38;;;;;;;10.10;6.70;;;;;;;24.19;49.08;101536.09;5011122;28;20637;-74
2021/06/12 05:12:03;;;;;;;6.53;5.80;;;;;;;24.21;49.09;101537.78;5011778;28;20206;-74
2021/06/12 05:14:28;;;;;;;11.90;7.33;;;;;;;24.21;49.29;101539.56;5011092;28;20212;-74
2021/06/12 05:16:54;;;;;;;9.63;7.33;;;;;;;24.21;49.39;101556.09;4992052;28;20180;-74
2021/06/12 05:19:19;;;;;;;11.30;7.70;;;;;;;24.28;50.19;101544.59;4991477;28;20249;-76
2021/06/12 05:21:46;;;;;;;13.63;8.13;;;;;;;24.30;50.60;101541.91;4991190;28;20184;-75
2021/06/12 05:24:11;;;;;;;13.37;9.17;;;;;;;24.30;51.92;101549.75;4991268;28;20179;-75
2021/06/12 05:26:39;;;;;;;14.10;8.53;;;;;;;24.26;51.26;101556.84;4991985;28;20250;-77
2021/06/12 05:29:04;;;;;;;10.60;8.23;;;;;;;24.33;51.47;101547.94;4992432;28;20223;-74
2021/06/12 05:31:29;;;;;;;14.63;8.60;;;;;;;24.38;51.43;101548.69;4995976;28;20172;-75
2021/06/12 05:33:54;;;;;;;14.07;8.73;;;;;;;24.37;51.37;101551.34;5009701;28;20609;-75
2021/06/12 05:36:20;;;;;;;11.30;8.63;;;;;;;24.35;51.16;101554.00;4996009;28;20227;-75
2021/06/12 05:38:45;;;;;;;10.67;8.40;;;;;;;24.38;50.86;101555.66;4993809;28;20684;-74
2021/06/12 05:41:11;;;;;;;11.33;8.07;;;;;;;24.40;50.62;101544.25;4995266;28;20208;-73
2021/06/12 05:43:36;;;;;;;9.93;8.13;;;;;;;24.40;50.81;101544.25;5010208;28;20279;-75
2021/06/12 05:46:02;;;;;;;10.13;8.47;;;;;;;24.31;50.46;101546.28;5010118;28;20180;-74
2021/06/12 05:48:27;;;;;;;9.73;8.20;;;;;;;24.25;50.42;101549.03;5009514;28;20226;-75
2021/06/12 05:50:53;;;;;;;11.70;7.60;;;;;;;24.24;50.26;101542.06;4993741;28;20654;-74
2021/06/12 05:53:18;;;;;;;9.67;7.70;;;;;;;24.26;50.55;101528.03;4992773;28;20290;-76
2021/06/12 05:55:44;;;;;;;9.67;7.93;;;;;;;24.29;50.66;101529.72;4993190;28;20171;-75
2021/06/12 05:58:09;;;;;;;13.87;7.70;;;;;;;24.26;50.78;101528.03;4992215;28;20548;-76
2021/06/12 06:00:35;;;;;;;11.03;7.70;;;;;;;24.25;50.42;101523.72;4993623;28;20346;-76
2021/06/12 06:03:00;;;;;;;11.57;6.77;;;;;;;24.24;50.40;101529.84;4993409;28;20373;-75
2021/06/12 06:05:26;;;;;;;8.93;7.20;;;;;;;24.24;50.18;101523.75;4993847;28;20184;-74
2021/06/12 06:07:51;;;;;;;11.20;7.90;;;;;;;24.23;50.19;101529.88;4993673;28;20222;-75
2021/06/12 06:10:17;;;;;;;10.23;7.80;;;;;;;24.22;50.13;101530.78;5008249;28;20231;-76
2021/06/12 06:12:42;;;;;;;9.50;7.70;;;;;;;24.23;49.71;101530.75;4993850;28;20179;-75
2021/06/12 06:15:10;;;;;;;10.87;7.43;;;;;;;24.24;49.99;101535.09;4999541;28;20241;-75
2021/06/12 06:17:37;;;;;;;9.93;7.43;;;;;;;24.24;49.55;101535.09;5028271;28;20185;-75
2021/06/12 06:20:03;;;;;;;9.67;8.57;;;;;;;24.22;49.84;101536.88;5012145;28;20191;-74
2021/06/12 06:22:29;;;;;;;9.00;8.10;;;;;;;24.21;49.59;101534.31;5011497;28;20262;-75
2021/06/12 06:24:54;;;;;;;9.40;8.50;;;;;;;24.21;49.63;101529.06;5012604;28;20262;-75
2021/06/12 06:27:19;;;;;;;9.53;8.20;;;;;;;24.18;49.44;101524.75;5012869;28;20172;-76
2021/06/12 06:29:45;;;;;;;11.33;8.73;;;;;;;24.15;49.76;101517.00;5013267;28;20265;-74
2021/06/12 06:32:10;;;;;;;12.00;10.40;;;;;;;24.03;49.80;101524.31;5015814;28;20520;-75
2021/06/12 06:34:35;;;;;;;15.20;13.17;;;;;;;23.91;50.04;101517.59;5016096;28;20167;-75
2021/06/12 06:37:01;;;;;;;15.23;12.70;;;;;;;23.89;49.93;101516.72;5012007;28;20661;-74
2021/06/12 06:39:26;;;;;;;13.53;12.10;;;;;;;23.89;49.81;101515.91;5012721;28;20195;-75
2021/06/12 06:41:51;;;;;;;13.33;11.30;;;;;;;23.90;49.97;101510.63;5014301;28;20203;-76
2021/06/12 06:44:16;;;;;;;14.40;12.10;;;;;;;24.01;50.19;101505.13;5028584;28;20183;-76
2021/06/12 06:46:42;;;;;;;13.40;11.77;;;;;;;24.08;50.41;101506.72;5012635;28;20624;-76
2021/06/12 06:49:07;;;;;;;16.63;12.07;;;;;;;24.15;50.52;101503.03;5015656;28;20214;-73
2021/06/12 06:51:32;;;;;;;14.27;11.37;;;;;;;24.17;50.92;101499.47;5032835;28;20183;-75
2021/06/12 06:53:57;;;;;;;18.07;11.73;;;;;;;24.24;50.97;101500.19;5019231;28;20591;-73
2021/06/12 06:56:23;;;;;;;18.03;11.63;;;;;;;24.23;50.92;101503.69;5018802;28;20178;-74
2021/06/12 06:58:48;;;;;;;20.00;11.50;;;;;;;24.22;51.13;101502.00;5021304;28;20182;-73
2021/06/12 07:01:13;;;;;;;14.63;11.90;;;;;;;24.21;51.06;101500.28;5031397;28;20221;-75
2021/06/12 07:03:39;;;;;;;14.73;11.33;;;;;;;24.24;50.49;101501.06;5035046;28;20274;-74
2021/06/12 07:06:04;;;;;;;16.20;11.93;;;;;;;24.26;50.69;101501.84;5020453;28;20560;-74
2021/06/12 07:08:30;;;;;;;17.57;12.63;;;;;;;24.28;50.42;101497.44;5018337;28;20195;-74
2021/06/12 07:10:55;;;;;;;16.83;11.00;;;;;;;24.29;50.25;101490.44;5018573;28;20278;-74
2021/06/12 07:13:22;;;;;;;14.43;11.87;;;;;;;24.27;50.49;101482.63;5020507;28;20236;-76
2021/06/12 07:15:47;;;;;;;14.60;10.73;;;;;;;24.24;50.44;101476.63;5005775;28;20266;-74
2021/06/12 07:18:13;;;;;;;12.67;10.93;;;;;;;24.28;50.09;101478.25;4997182;28;20207;-74
2021/06/12 07:20:38;;;;;;;12.63;11.43;;;;;;;24.28;50.22;101483.50;4999432;28;20227;-75
2021/06/12 07:23:04;;;;;;;16.33;11.77;;;;;;;24.22;49.99;101487.13;5012822;28;20187;-76
2021/06/12 07:25:29;;;;;;;13.30;11.27;;;;;;;24.22;49.61;101481.88;5013215;28;20654;-76
2021/06/12 07:27:55;;;;;;;13.53;11.37;;;;;;;24.20;49.94;101470.59;5012900;28;20214;-75
2021/06/12 07:30:20;;;;;;;16.23;13.57;;;;;;;24.04;49.99;101479.72;5001813;28;20207;-76
2021/06/12 07:32:45;;;;;;;14.23;12.30;;;;;;;24.06;49.93;101472.72;4997889;28;20187;-76
2021/06/12 07:35:11;;;;;;;14.20;12.00;;;;;;;24.11;49.67;101480.44;4997791;28;20175;-76
2021/06/12 07:37:37;;;;;;;14.07;12.40;;;;;;;24.05;49.83;101468.38;4998843;28;20625;-75
2021/06/12 07:40:04;;;;;;;14.03;12.00;;;;;;;24.06;49.49;101472.72;4999773;28;20200;-76
2021/06/12 07:42:29;;;;;;;15.13;12.90;;;;;;;23.98;49.59;101468.59;4998237;28;20175;-76
2021/06/12 07:44:54;;;;;;;13.23;11.93;;;;;;;24.01;49.76;101473.72;4999341;28;20266;-76
2021/06/12 07:47:20;;;;;;;17.30;12.20;;;;;;;23.96;49.52;101465.13;5001228;28;20196;-75
2021/06/12 07:49:45;;;;;;;16.10;12.17;;;;;;;23.91;49.58;101459.16;5000109;28;20275;-77
2021/06/12 07:52:10;;;;;;;24.03;12.33;;;;;;;23.93;49.58;101465.19;5000831;28;20195;-76
2021/06/12 07:54:35;;;;;;;18.27;11.70;;;;;;;23.99;49.46;101470.31;5016431;28;20183;-75
2021/06/12 07:57:01;;;;;;;17.63;11.53;;;;;;;24.01;49.26;101461.50;5000499;28;20176;-76
2021/06/12 07:59:26;;;;;;;16.17;11.20;;;;;;;24.00;49.30;101458.94;5000176;28;20235;-75
2021/06/12 08:01:51;;;;;;;13.40;10.43;;;;;;;24.01;49.48;101458.91;4997679;28;20270;-76
2021/06/12 08:04:17;;;;;;;13.50;10.90;;;;;;;23.99;49.64;101470.31;4999042;28;20215;-76
2021/06/12 08:06:42;;;;;;;15.43;10.83;;;;;;;23.95;49.78;101466.91;4998659;28;20183;-76
2021/06/12 08:09:07;;;;;;;15.20;10.90;;;;;;;23.94;50.48;101470.41;4998532;28;21072;-76
2021/06/12 08:11:33;;;;;;;11.87;9.87;;;;;;;23.95;50.11;101469.53;4998522;28;20187;-75
2021/06/12 08:13:58;;;;;;;12.97;10.57;;;;;;;23.93;50.09;101471.31;4998655;28;20660;-75
2021/06/12 08:16:23;;;;;;;12.00;10.33;;;;;;;23.97;50.20;101475.56;5014425;28;20648;-75
2021/06/12 08:18:51;;;;;;;12.73;10.40;;;;;;;23.93;50.20;101483.53;5032769;28;20193;-74
2021/06/12 08:21:16;;;;;;;15.57;12.03;;;;;;;23.89;50.78;101502.81;5018092;28;20237;-76
2021/06/12 08:23:41;;;;;;;12.63;11.17;;;;;;;23.88;50.67;101506.28;5032441;28;20652;-76
2021/06/12 08:26:07;;;;;;;14.77;13.03;;;;;;;23.83;50.68;101506.44;5032684;28;20209;-75
2021/06/12 08:28:32;;;;;;;13.07;11.47;;;;;;;23.82;51.08;101506.47;5017650;28;20227;-75
2021/06/12 08:30:58;;;;;;;12.93;11.50;;;;;;;23.69;51.78;101513.75;5030930;28;20591;-75
2021/06/12 08:33:24;;;;;;;13.10;11.73;;;;;;;23.80;50.87;101510.88;5000644;28;20241;-78
2021/06/12 08:35:49;;;;;;;10.53;9.43;;;;;;;23.88;50.86;101495.81;5010778;28;20257;-77
2021/06/12 08:38:15;;;;;;;11.13;9.17;;;;;;;23.97;50.64;101500.88;5013334;28;20175;-78
2021/06/12 08:40:40;;;;;;;10.83;9.13;;;;;;;24.05;50.63;101497.19;5012326;28;20286;-77
2021/06/12 08:43:05;;;;;;;10.03;8.70;;;;;;;24.08;50.50;101491.84;5013209;28;20243;-77
2021/06/12 08:45:32;;;;;;;8.40;7.50;;;;;;;24.15;50.25;101500.41;5012805;28;20187;-73
2021/06/12 08:47:58;;;;;;;9.10;7.97;;;;;;;24.17;50.67;101502.09;5010349;28;20211;-73
2021/06/12 08:50:24;;;;;;;8.57;7.70;;;;;;;24.22;50.36;101505.44;5005446;28;20570;-73
2021/06/12 08:52:52;;;;;;;8.80;7.90;;;;;;;24.23;50.45;101507.19;4999620;28;20179;-73
2021/06/12 08:55:18;;;;;;;9.97;8.20;;;;;;;24.22;50.48;101508.06;5012164;28;20674;-73
2021/06/12 08:57:44;;;;;;;9.33;8.37;;;;;;;24.24;50.44;101514.13;5011734;28;20182;-73
2021/06/12 09:00:10;;;;;;;8.30;7.50;;;;;;;24.25;50.33;101526.31;5011687;28;20668;-74
2021/06/12 09:03:03;;;;;;;8.50;7.70;;;;;;;24.24;50.59;101524.63;5011929;28;20351;-73
2021/06/12 09:05:42;;;;;;;8.93;7.70;;;;;;;24.14;50.47;101515.28;5013408;28;20175;-73
2021/06/12 09:08:11;;;;;;;8.60;7.23;;;;;;;23.99;49.91;101525.28;5036405;28;20206;-73
2021/06/12 09:10:49;;;;;;;10.30;6.73;;;;;;;23.93;49.88;101528.88;5036211;28;20186;-74
2021/06/12 09:13:15;;;;;;;9.57;7.00;;;;;;;23.91;49.64;101529.81;5012875;28;20186;-72
2021/06/12 09:15:40;;;;;;;10.90;6.53;;;;;;;24.03;50.51;101525.13;5009721;28;20175;-72
2021/06/12 09:18:06;;;;;;;7.90;5.80;;;;;;;24.25;48.78;101515.84;5011860;28;20639;-73
2021/06/12 09:20:31;;;;;;;5.87;5.27;;;;;;;24.32;48.53;101520.06;5011568;28;20205;-75
2021/06/12 09:23:10;;;;;;;7.63;5.10;;;;;;;24.31;48.31;101523.53;5012016;28;20392;-74
2021/06/12 09:25:38;;;;;;;6.20;4.40;;;;;;;24.39;47.91;101520.72;5011007;28;20262;-72
2021/06/12 09:28:04;;;;;;;6.27;4.37;;;;;;;24.37;47.79;101531.25;5026082;28;20207;-72
2021/06/12 09:30:30;;;;;;;5.73;3.93;;;;;;;24.33;47.30;101524.38;5009279;28;20210;-73
2021/06/12 09:32:55;;;;;;;4.93;3.80;;;;;;;24.28;47.91;101522.78;4992610;28;20222;-72
2021/06/12 09:35:30;;;;;;;4.97;3.40;;;;;;;24.24;46.96;101523.75;5010838;28;20182;-72
2021/06/12 09:37:56;;;;;;;6.03;3.70;;;;;;;24.22;46.86;101525.56;5026068;28;20190;-73
2021/06/12 09:40:22;;;;;;;6.07;3.47;;;;;;;24.17;46.19;101524.81;5010976;28;20203;-72
2021/06/12 09:42:48;;;;;;;5.77;3.40;;;;;;;24.13;46.10;101531.03;5012721;28;20172;-74
2021/06/12 09:45:24;;;;;;;7.93;3.60;;;;;;;24.15;46.48;101544.91;5010022;28;20262;-74
2021/06/12 09:47:50;;;;;;;5.37;3.30;;;;;;;24.24;46.92;101542.94;5011343;28;20270;-74
2021/06/12 09:50:23;;;;;;;14.40;4.10;;;;;;;24.28;45.28;101548.97;5009452;28;20286;-73
2021/06/12 09:52:52;;;;;;;4.97;3.03;;;;;;;24.28;45.05;101544.59;5011019;28;20270;-72
2021/06/12 09:55:27;;;;;;;5.67;3.20;;;;;;;24.34;44.88;101528.72;5009310;28;20274;-73
2021/06/12 09:57:54;;;;;;;4.87;2.80;;;;;;;24.35;44.85;101532.19;5010692;28;20163;-74
2021/06/12 10:00:41;;;;;;;5.33;2.97;;;;;;;24.36;44.56;101534.75;5008775;28;20191;-75
2021/06/12 10:03:20;;;;;;;5.53;3.37;;;;;;;24.34;44.50;101543.56;5010233;28;20171;-75
2021/06/12 10:05:46;;;;;;;6.03;2.70;;;;;;;24.33;44.47;101541.84;5011136;28;20558;-74
2021/06/12 10:08:16;;;;;;;5.50;2.93;;;;;;;24.21;44.23;101545.63;5010650;28;20199;-73
2021/06/12 10:10:49;;;;;;;5.90;3.30;;;;;;;24.25;43.93;101538.53;5010622;28;20205;-72
2021/06/12 10:13:15;;;;;;;3.93;2.60;;;;;;;24.26;43.78;101543.75;5010085;28;20648;-73
2021/06/12 10:15:40;;;;;;;5.77;2.80;;;;;;;24.25;42.99;101549.91;5010182;28;20171;-72
2021/06/12 10:18:07;;;;;;;8.53;3.00;;;;;;;24.21;43.34;101542.16;5011591;28;20175;-72
2021/06/12 10:20:32;;;;;;;5.33;2.83;;;;;;;24.18;42.70;101548.31;5012565;28;20195;-73
2021/06/12 10:22:57;;;;;;;6.00;2.83;;;;;;;24.09;43.08;101559.03;5010753;28;20183;-72
2021/06/12 10:25:24;;;;;;;5.27;3.17;;;;;;;24.10;43.00;101568.59;5011995;28;20254;-73
2021/06/12 10:27:49;;;;;;;4.53;2.90;;;;;;;24.11;43.12;101556.34;5000791;28;20184;-72
2021/06/12 10:30:19;;;;;;;6.03;3.13;;;;;;;24.14;42.96;101561.53;4994646;28;20699;-74
2021/06/12 10:32:50;;;;;;;6.20;2.60;;;;;;;24.15;42.73;101561.50;4991448;28;20704;-72
2021/06/12 10:35:23;;;;;;;6.43;2.67;;;;;;;24.04;42.96;101579.22;4994896;28;20207;-73
2021/06/12 10:37:56;;;;;;;7.07;2.57;;;;;;;24.08;42.85;101572.16;4992965;28;20198;-74
2021/06/12 10:40:47;;;;;;;5.43;2.63;;;;;;;24.06;42.14;101572.19;5000146;28;20191;-72
2021/06/12 10:43:18;;;;;;;6.23;2.47;;;;;;;24.00;41.98;101584.56;5014273;28;20703;-73
2021/06/12 10:46:08;;;;;;;3.80;2.13;;;;;;;23.96;41.70;101581.16;5012558;28;20179;-73
2021/06/12 10:48:36;;;;;;;5.13;2.63;;;;;;;23.99;43.68;101591.53;5013831;28;20241;-70
2021/06/12 10:51:02;;;;;;;7.43;2.40;;;;;;;24.13;41.18;101580.75;5013208;28;20613;-73
2021/06/12 10:53:34;;;;;;;6.60;2.27;;;;;;;24.12;41.11;101597.38;5015418;28;20175;-73
2021/06/12 10:56:01;;;;;;;5.63;2.20;;;;;;;24.05;40.89;101591.41;5013982;28;20163;-72
2021/06/12 10:58:32;;;;;;;6.03;2.17;;;;;;;24.06;41.06;101598.38;5013557;28;20698;-74
2021/06/12 11:01:07;;;;;;;7.27;2.17;;;;;;;24.06;40.90;101600.13;5013399;28;20198;-73
2021/06/12 11:06:46;;;;;;;7.73;2.20;;;;;;;24.08;41.05;101600.97;5014071;28;20642;-72
2021/06/12 11:09:12;;;;;;;4.00;1.80;;;;;;;24.06;40.85;101594.88;5014313;28;20194;-71
2021/06/12 11:11:37;;;;;;;5.37;2.20;;;;;;;24.04;40.69;101597.53;5029035;28;20175;-74
2021/06/12 11:14:23;;;;;;;4.83;2.17;;;;;;;24.05;40.58;101595.78;5031837;28;20194;-73
2021/06/12 11:17:04;;;;;;;4.63;2.10;;;;;;;24.03;40.53;101598.44;4992977;28;20241;-72
2021/06/12 11:19:30;;;;;;;5.03;1.90;;;;;;;24.02;40.76;101601.97;4992508;28;20826;-73
2021/06/12 11:22:33;;;;;;;5.47;1.70;;;;;;;24.01;40.17;101608.09;4993773;28;20587;-72
2021/06/12 11:25:02;;;;;;;10.60;1.90;;;;;;;23.99;40.21;101602.00;4993755;28;20207;-73
2021/06/12 11:27:33;;;;;;;5.00;2.17;;;;;;;24.03;40.06;101601.06;5005343;28;20190;-72